sensor_id;sensor_type;location;lat;lon;timestamp;pressure;altitude;pressure_sealevel;temperature;humidity
50484;BME280;36409;52.168;20.878;2023-04-30T00:00:21;100236.46;;;11.12;61.04
50484;BME280;36409;52.168;20.878;2023-04-30T00:03:13;100237.34;;;11.13;61.07
50484;BME280;36409;52.168;20.878;2023-04-30T00:05:48;100235.58;;;11.13;60.92
50484;BME280;36409;52.168;20.878;2023-04-30T00:08:21;100237.34;;;11.13;61.56
50484;BME280;36409;52.168;20.878;2023-04-30T00:10:54;100235.62;;;11.10;61.71
50484;BME280;36409;52.168;20.878;2023-04-30T00:13:26;100237.42;;;11.08;61.13
50484;BME280;36409;52.168;20.878;2023-04-30T00:15:59;100236.55;;;11.08;62.17
50484;BME280;36409;52.168;20.878;2023-04-30T00:18:31;100228.75;;;11.06;61.08
50484;BME280;36409;52.168;20.878;2023-04-30T00:21:04;100246.15;;;11.07;61.29
50484;BME280;36409;52.168;20.878;2023-04-30T00:23:37;100237.44;;;11.07;61.46
50484;BME280;36409;52.168;20.878;2023-04-30T00:26:10;100236.59;;;11.05;62.62
50484;BME280;36409;52.168;20.878;2023-04-30T00:28:43;100240.13;;;11.02;61.87
50484;BME280;36409;52.168;20.878;2023-04-30T00:31:17;100250.54;;;11.04;62.66
50484;BME280;36409;52.168;20.878;2023-04-30T00:33:51;100251.45;;;11.03;62.07
50484;BME280;36409;52.168;20.878;2023-04-30T00:36:24;100250.58;;;11.02;62.38
50484;BME280;36409;52.168;20.878;2023-04-30T00:38:57;100255.84;;;11.01;62.22
50484;BME280;36409;52.168;20.878;2023-04-30T00:41:30;100250.66;;;10.97;63.04
50484;BME280;36409;52.168;20.878;2023-04-30T00:44:03;100255.05;;;10.95;62.96
50484;BME280;36409;52.168;20.878;2023-04-30T00:46:36;100251.59;;;10.93;62.76
50484;BME280;36409;52.168;20.878;2023-04-30T00:49:09;100256.81;;;10.93;62.50
50484;BME280;36409;52.168;20.878;2023-04-30T00:51:42;100255.13;;;10.91;63.56
50484;BME280;36409;52.168;20.878;2023-04-30T00:54:15;100264.73;;;10.90;62.65
50484;BME280;36409;52.168;20.878;2023-04-30T00:56:49;100263.00;;;10.89;63.77
50484;BME280;36409;52.168;20.878;2023-04-30T00:59:23;100256.02;;;10.90;62.91
50484;BME280;36409;52.168;20.878;2023-04-30T01:01:55;100257.78;;;10.89;63.46
50484;BME280;36409;52.168;20.878;2023-04-30T01:04:29;100259.51;;;10.90;63.69
50484;BME280;36409;52.168;20.878;2023-04-30T01:07:03;100253.40;;;10.91;64.00
50484;BME280;36409;52.168;20.878;2023-04-30T01:09:36;100254.25;;;10.92;63.93
50484;BME280;36409;52.168;20.878;2023-04-30T01:12:14;100256.81;;;10.93;63.43
50484;BME280;36409;52.168;20.878;2023-04-30T01:15:00;100254.20;;;10.93;63.58
50484;BME280;36409;52.168;20.878;2023-04-30T01:17:40;100256.81;;;10.93;64.46
50484;BME280;36409;52.168;20.878;2023-04-30T01:20:16;100252.44;;;10.95;64.22
50484;BME280;36409;52.168;20.878;2023-04-30T01:22:54;100258.54;;;10.96;64.41
50484;BME280;36409;52.168;20.878;2023-04-30T01:25:51;100255.93;;;10.94;64.67
50484;BME280;36409;52.168;20.878;2023-04-30T01:28:25;100263.76;;;10.96;64.50
50484;BME280;36409;52.168;20.878;2023-04-30T01:31:01;100270.71;;;10.97;65.16
50484;BME280;36409;52.168;20.878;2023-04-30T01:33:34;100265.48;;;10.97;64.70
50484;BME280;36409;52.168;20.878;2023-04-30T01:36:17;100266.33;;;10.97;64.72
50484;BME280;36409;52.168;20.878;2023-04-30T01:39:01;100268.95;;;10.97;64.41
50484;BME280;36409;52.168;20.878;2023-04-30T01:41:46;100265.45;;;10.99;65.23
50484;BME280;36409;52.168;20.878;2023-04-30T01:44:35;100269.78;;;11.00;65.05
50484;BME280;36409;52.168;20.878;2023-04-30T01:47:19;100274.13;;;10.99;65.77
50484;BME280;36409;52.168;20.878;2023-04-30T01:50:01;100274.13;;;10.99;64.84
50484;BME280;36409;52.168;20.878;2023-04-30T01:52:41;100272.40;;;11.00;64.76
50484;BME280;36409;52.168;20.878;2023-04-30T01:55:23;100275.86;;;11.00;64.99
50484;BME280;36409;52.168;20.878;2023-04-30T01:58:00;100276.73;;;11.01;65.87
50484;BME280;36409;52.168;20.878;2023-04-30T02:00:32;100277.58;;;11.01;65.74
50484;BME280;36409;52.168;20.878;2023-04-30T02:03:05;100274.97;;;11.01;65.16
50484;BME280;36409;52.168;20.878;2023-04-30T02:05:38;100279.34;;;11.01;65.88
50484;BME280;36409;52.168;20.878;2023-04-30T02:08:10;100281.95;;;11.01;65.75
50484;BME280;36409;52.168;20.878;2023-04-30T02:10:43;100281.08;;;11.02;66.10
50484;BME280;36409;52.168;20.878;2023-04-30T02:13:15;100284.53;;;11.02;66.05
50484;BME280;36409;52.168;20.878;2023-04-30T02:15:49;100290.64;;;11.01;65.95
50484;BME280;36409;52.168;20.878;2023-04-30T02:18:21;100293.25;;;11.01;66.22
50484;BME280;36409;52.168;20.878;2023-04-30T02:20:54;100289.80;;;10.99;66.05
50484;BME280;36409;52.168;20.878;2023-04-30T02:23:27;100289.80;;;11.01;66.07
50484;BME280;36409;52.168;20.878;2023-04-30T02:26:00;100291.52;;;11.00;66.75
50484;BME280;36409;52.168;20.878;2023-04-30T02:28:33;100288.06;;;11.00;66.90
50484;BME280;36409;52.168;20.878;2023-04-30T02:31:06;100295.06;;;10.97;67.06
50484;BME280;36409;52.168;20.878;2023-04-30T02:33:38;100295.09;;;10.96;67.16
50484;BME280;36409;52.168;20.878;2023-04-30T02:36:11;100293.38;;;10.93;66.53
50484;BME280;36409;52.168;20.878;2023-04-30T02:38:44;100304.78;;;10.89;67.72
50484;BME280;36409;52.168;20.878;2023-04-30T02:41:20;100310.05;;;10.86;67.05
50484;BME280;36409;52.168;20.878;2023-04-30T02:43:53;100309.20;;;10.84;67.57
50484;BME280;36409;52.168;20.878;2023-04-30T02:46:26;100311.89;;;10.79;68.27
50484;BME280;36409;52.168;20.878;2023-04-30T02:48:59;100314.54;;;10.76;68.22
50484;BME280;36409;52.168;20.878;2023-04-30T02:51:31;100313.73;;;10.73;67.95
50484;BME280;36409;52.168;20.878;2023-04-30T02:54:04;100327.67;;;10.72;68.10
50484;BME280;36409;52.168;20.878;2023-04-30T02:56:36;100329.44;;;10.70;68.17
50484;BME280;36409;52.168;20.878;2023-04-30T02:59:09;100328.55;;;10.71;68.14
50484;BME280;36409;52.168;20.878;2023-04-30T03:01:42;100334.69;;;10.68;68.51
50484;BME280;36409;52.168;20.878;2023-04-30T03:04:15;100340.83;;;10.65;68.42
50484;BME280;36409;52.168;20.878;2023-04-30T03:06:47;100334.77;;;10.63;69.30
50484;BME280;36409;52.168;20.878;2023-04-30T03:09:20;100337.41;;;10.60;68.87
50484;BME280;36409;52.168;20.878;2023-04-30T03:11:53;100335.69;;;10.59;69.41
50484;BME280;36409;52.168;20.878;2023-04-30T03:14:25;100347.92;;;10.57;68.70
50484;BME280;36409;52.168;20.878;2023-04-30T03:16:58;100345.31;;;10.56;68.69
50484;BME280;36409;52.168;20.878;2023-04-30T03:19:31;100349.68;;;10.55;68.92
50484;BME280;36409;52.168;20.878;2023-04-30T03:22:04;100351.45;;;10.53;69.35
50484;BME280;36409;52.168;20.878;2023-04-30T03:24:36;100354.97;;;10.50;69.03
50484;BME280;36409;52.168;20.878;2023-04-30T03:27:09;100362.87;;;10.46;69.31
50484;BME280;36409;52.168;20.878;2023-04-30T03:29:41;100359.37;;;10.45;69.36
50484;BME280;36409;52.168;20.878;2023-04-30T03:32:14;100362.87;;;10.44;69.01
50484;BME280;36409;52.168;20.878;2023-04-30T03:34:47;100369.84;;;10.42;69.00
50484;BME280;36409;52.168;20.878;2023-04-30T03:37:19;100374.25;;;10.40;68.81
50484;BME280;36409;52.168;20.878;2023-04-30T03:39:54;100382.95;;;10.36;69.42
50484;BME280;36409;52.168;20.878;2023-04-30T03:42:27;100381.32;;;10.27;68.96
50484;BME280;36409;52.168;20.878;2023-04-30T03:45:00;100389.27;;;10.18;68.87
50484;BME280;36409;52.168;20.878;2023-04-30T03:47:32;100390.29;;;10.06;69.47
50484;BME280;36409;52.168;20.878;2023-04-30T03:50:09;100400.86;;;9.94;69.07
50484;BME280;36409;52.168;20.878;2023-04-30T03:52:42;100401.84;;;9.82;69.19
50484;BME280;36409;52.168;20.878;2023-04-30T03:55:15;100410.63;;;9.71;69.06
50484;BME280;36409;52.168;20.878;2023-04-30T03:57:48;100418.52;;;9.64;69.62
50484;BME280;36409;52.168;20.878;2023-04-30T04:00:23;100417.70;;;9.57;68.80
50484;BME280;36409;52.168;20.878;2023-04-30T04:02:57;100424.72;;;9.52;69.04
50484;BME280;36409;52.168;20.878;2023-04-30T04:05:31;100438.64;;;9.48;68.76
50484;BME280;36409;52.168;20.878;2023-04-30T04:08:04;100441.29;;;9.43;68.75
50484;BME280;36409;52.168;20.878;2023-04-30T04:10:37;100444.81;;;9.37;68.82
50484;BME280;36409;52.168;20.878;2023-04-30T04:13:10;100447.48;;;9.31;69.07
50484;BME280;36409;52.168;20.878;2023-04-30T04:15:43;100456.17;;;9.27;69.00
50484;BME280;36409;52.168;20.878;2023-04-30T04:18:16;100461.42;;;9.22;69.18
50484;BME280;36409;52.168;20.878;2023-04-30T04:20:51;100470.13;;;9.20;69.08
50484;BME280;36409;52.168;20.878;2023-04-30T04:23:26;100474.48;;;9.18;69.46
50484;BME280;36409;52.168;20.878;2023-04-30T04:25:58;100478.83;;;9.16;68.86
50484;BME280;36409;52.168;20.878;2023-04-30T04:28:32;100487.53;;;9.13;68.58
50484;BME280;36409;52.168;20.878;2023-04-30T04:31:04;100485.78;;;9.14;68.76
50484;BME280;36409;52.168;20.878;2023-04-30T04:33:38;100497.05;;;9.16;69.06
50484;BME280;36409;52.168;20.878;2023-04-30T04:36:10;100498.79;;;9.17;69.31
50484;BME280;36409;52.168;20.878;2023-04-30T04:38:43;100501.37;;;9.18;68.94
50484;BME280;36409;52.168;20.878;2023-04-30T04:41:17;100498.76;;;9.21;69.07
50484;BME280;36409;52.168;20.878;2023-04-30T04:43:51;100505.70;;;9.22;68.47
50484;BME280;36409;52.168;20.878;2023-04-30T04:46:24;100521.33;;;9.22;69.14
50484;BME280;36409;52.168;20.878;2023-04-30T04:48:58;100523.95;;;9.21;68.86
50484;BME280;36409;52.168;20.878;2023-04-30T04:51:31;100517.02;;;9.20;68.91
50484;BME280;36409;52.168;20.878;2023-04-30T04:54:04;100526.55;;;9.19;68.89
50484;BME280;36409;52.168;20.878;2023-04-30T04:56:36;100525.70;;;9.19;68.50
50484;BME280;36409;52.168;20.878;2023-04-30T04:59:09;100531.77;;;9.21;68.77
50484;BME280;36409;52.168;20.878;2023-04-30T05:01:41;100537.83;;;9.21;68.41
50484;BME280;36409;52.168;20.878;2023-04-30T05:04:14;100536.95;;;9.22;68.42
50484;BME280;36409;52.168;20.878;2023-04-30T05:06:48;100536.94;;;9.24;68.24
50484;BME280;36409;52.168;20.878;2023-04-30T05:09:21;100546.50;;;9.23;68.73
50484;BME280;36409;52.168;20.878;2023-04-30T05:11:54;100545.61;;;9.26;68.52
50484;BME280;36409;52.168;20.878;2023-04-30T05:14:27;100553.41;;;9.32;68.61
50484;BME280;36409;52.168;20.878;2023-04-30T05:17:00;100552.53;;;9.33;68.79
50484;BME280;36409;52.168;20.878;2023-04-30T05:19:33;100564.69;;;9.34;68.12
50484;BME280;36409;52.168;20.878;2023-04-30T05:22:05;100564.64;;;9.37;68.32
50484;BME280;36409;52.168;20.878;2023-04-30T05:24:38;100569.00;;;9.37;67.89
50484;BME280;36409;52.168;20.878;2023-04-30T05:27:10;100566.37;;;9.38;67.94
50484;BME280;36409;52.168;20.878;2023-04-30T05:29:43;100570.70;;;9.42;68.35
50484;BME280;36409;52.168;20.878;2023-04-30T05:32:17;100572.40;;;9.47;68.11
50484;BME280;36409;52.168;20.878;2023-04-30T05:34:51;100577.61;;;9.51;68.58
50484;BME280;36409;52.168;20.878;2023-04-30T05:37:25;100583.64;;;9.56;68.57
50484;BME280;36409;52.168;20.878;2023-04-30T05:39:58;100584.50;;;9.58;68.32
50484;BME280;36409;52.168;20.878;2023-04-30T05:42:30;100587.09;;;9.60;67.79
50484;BME280;36409;52.168;20.878;2023-04-30T05:45:04;100583.59;;;9.64;68.01
50484;BME280;36409;52.168;20.878;2023-04-30T05:47:36;100593.13;;;9.67;67.82
50484;BME280;36409;52.168;20.878;2023-04-30T05:50:10;100594.83;;;9.69;67.79
50484;BME280;36409;52.168;20.878;2023-04-30T05:52:42;100596.55;;;9.73;67.82
50484;BME280;36409;52.168;20.878;2023-04-30T05:55:15;100598.28;;;9.78;67.89
50484;BME280;36409;52.168;20.878;2023-04-30T05:57:47;100604.31;;;9.84;68.27
50484;BME280;36409;52.168;20.878;2023-04-30T06:00:20;100607.72;;;9.93;67.76
50484;BME280;36409;52.168;20.878;2023-04-30T06:02:54;100608.49;;;10.02;68.37
50484;BME280;36409;52.168;20.878;2023-04-30T06:05:29;100606.70;;;10.11;68.21
50484;BME280;36409;52.168;20.878;2023-04-30T06:08:02;100608.38;;;10.18;67.77
50484;BME280;36409;52.168;20.878;2023-04-30T06:10:35;100611.80;;;10.25;67.96
50484;BME280;36409;52.168;20.878;2023-04-30T06:13:08;100614.39;;;10.28;68.00
50484;BME280;36409;52.168;20.878;2023-04-30T06:15:41;100614.39;;;10.28;67.53
50484;BME280;36409;52.168;20.878;2023-04-30T06:18:15;100623.00;;;10.38;67.37
50484;BME280;36409;52.168;20.878;2023-04-30T06:20:48;100632.16;;;10.80;67.62
50484;BME280;36409;52.168;20.878;2023-04-30T06:23:26;100629.82;;;11.31;66.61
50484;BME280;36409;52.168;20.878;2023-04-30T06:26:00;100622.67;;;11.45;66.66
50484;BME280;36409;52.168;20.878;2023-04-30T06:28:31;100633.70;;;11.66;66.36
50484;BME280;36409;52.168;20.878;2023-04-30T06:31:06;100625.50;;;11.89;67.18
50484;BME280;36409;52.168;20.878;2023-04-30T06:33:38;100618.26;;;12.08;66.92
50484;BME280;36409;52.168;20.878;2023-04-30T06:36:11;100624.34;;;12.10;65.17
50484;BME280;36409;52.168;20.878;2023-04-30T06:38:45;100620.06;;;12.04;65.93
50484;BME280;36409;52.168;20.878;2023-04-30T06:41:18;100619.61;;;12.32;64.17
50484;BME280;36409;52.168;20.878;2023-04-30T06:43:51;100621.16;;;12.90;63.99
50484;BME280;36409;52.168;20.878;2023-04-30T06:46:24;100603.94;;;14.33;62.77
50484;BME280;36409;52.168;20.878;2023-04-30T06:48:56;100623.14;;;15.02;61.43
50484;BME280;36409;52.168;20.878;2023-04-30T06:51:28;100616.31;;;15.84;60.29
50484;BME280;36409;52.168;20.878;2023-04-30T06:54:01;100617.52;;;16.01;59.71
50484;BME280;36409;52.168;20.878;2023-04-30T06:56:34;100618.72;;;15.62;59.02
50484;BME280;36409;52.168;20.878;2023-04-30T06:59:06;100622.66;;;14.87;59.07
50484;BME280;36409;52.168;20.878;2023-04-30T07:01:39;100629.36;;;14.66;59.89
50484;BME280;36409;52.168;20.878;2023-04-30T07:04:11;100631.34;;;14.58;58.86
50484;BME280;36409;52.168;20.878;2023-04-30T07:06:44;100634.18;;;14.48;59.10
50484;BME280;36409;52.168;20.878;2023-04-30T07:09:17;100634.90;;;14.88;58.94
50484;BME280;36409;52.168;20.878;2023-04-30T07:11:49;100633.09;;;14.90;57.95
50484;BME280;36409;52.168;20.878;2023-04-30T07:14:22;100642.09;;;14.81;58.08
50484;BME280;36409;52.168;20.878;2023-04-30T07:16:55;100636.66;;;14.55;57.28
50484;BME280;36409;52.168;20.878;2023-04-30T07:19:28;100643.54;;;14.59;58.06
50484;BME280;36409;52.168;20.878;2023-04-30T07:22:00;100648.70;;;14.63;57.37
50484;BME280;36409;52.168;20.878;2023-04-30T07:24:33;100640.63;;;14.36;57.08
50484;BME280;36409;52.168;20.878;2023-04-30T07:27:05;100654.06;;;14.24;57.32
50484;BME280;36409;52.168;20.878;2023-04-30T07:29:38;100659.84;;;14.39;56.85
50484;BME280;36409;52.168;20.878;2023-04-30T07:32:10;100650.82;;;14.49;55.84
50484;BME280;36409;52.168;20.878;2023-04-30T07:34:43;100652.88;;;14.36;55.79
50484;BME280;36409;52.168;20.878;2023-04-30T07:37:18;100659.86;;;14.37;56.17
50484;BME280;36409;52.168;20.878;2023-04-30T07:39:50;100667.37;;;14.16;56.00
50484;BME280;36409;52.168;20.878;2023-04-30T07:42:24;100668.05;;;13.88;56.13
50484;BME280;36409;52.168;20.878;2023-04-30T07:44:57;100681.13;;;13.49;56.07
50484;BME280;36409;52.168;20.878;2023-04-30T07:47:30;100676.31;;;13.27;55.52
50484;BME280;36409;52.168;20.878;2023-04-30T07:50:03;100672.02;;;13.23;55.83
50484;BME280;36409;52.168;20.878;2023-04-30T07:52:36;100675.36;;;13.32;55.02
50484;BME280;36409;52.168;20.878;2023-04-30T07:55:09;100670.84;;;13.40;55.42
50484;BME280;36409;52.168;20.878;2023-04-30T07:57:42;100679.39;;;13.50;55.93
50484;BME280;36409;52.168;20.878;2023-04-30T08:00:15;100675.09;;;13.46;55.70
50484;BME280;36409;52.168;20.878;2023-04-30T08:02:48;100676.63;;;13.56;55.13
50484;BME280;36409;52.168;20.878;2023-04-30T08:05:21;100680.70;;;13.69;55.80
50484;BME280;36409;52.168;20.878;2023-04-30T08:07:55;100671.84;;;13.75;55.31
50484;BME280;36409;52.168;20.878;2023-04-30T08:10:28;100682.97;;;13.85;55.27
50484;BME280;36409;52.168;20.878;2023-04-30T08:13:02;100678.49;;;13.90;54.87
50484;BME280;36409;52.168;20.878;2023-04-30T08:15:35;100688.05;;;13.93;54.42
50484;BME280;36409;52.168;20.878;2023-04-30T08:18:10;100688.31;;;13.82;54.76
50484;BME280;36409;52.168;20.878;2023-04-30T08:20:43;100690.53;;;13.59;53.88
50484;BME280;36409;52.168;20.878;2023-04-30T08:23:15;100690.16;;;13.34;53.27
50484;BME280;36409;52.168;20.878;2023-04-30T08:25:48;100694.61;;;13.29;54.16
50484;BME280;36409;52.168;20.878;2023-04-30T08:28:22;100693.77;;;13.28;53.99
50484;BME280;36409;52.168;20.878;2023-04-30T08:30:55;100698.16;;;13.28;53.62
50484;BME280;36409;52.168;20.878;2023-04-30T08:33:27;100705.98;;;13.29;53.84
50484;BME280;36409;52.168;20.878;2023-04-30T08:36:05;100701.97;;;13.11;53.17
50484;BME280;36409;52.168;20.878;2023-04-30T08:38:37;100713.43;;;13.06;53.69
50484;BME280;36409;52.168;20.878;2023-04-30T08:41:12;100707.16;;;13.15;53.35
50484;BME280;36409;52.168;20.878;2023-04-30T08:43:45;100710.19;;;13.38;53.21
50484;BME280;36409;52.168;20.878;2023-04-30T08:46:20;100710.91;;;13.47;52.64
50484;BME280;36409;52.168;20.878;2023-04-30T08:48:55;100709.13;;;13.49;51.91
50484;BME280;36409;52.168;20.878;2023-04-30T08:51:30;100719.80;;;13.80;51.74
50484;BME280;36409;52.168;20.878;2023-04-30T08:54:05;100712.89;;;14.15;50.43
50484;BME280;36409;52.168;20.878;2023-04-30T08:56:38;100714.93;;;14.40;50.47
50484;BME280;36409;52.168;20.878;2023-04-30T08:59:12;100718.29;;;14.81;49.51
50484;BME280;36409;52.168;20.878;2023-04-30T09:01:45;100723.17;;;15.28;49.51
50484;BME280;36409;52.168;20.878;2023-04-30T09:04:18;100711.14;;;15.51;49.07
50484;BME280;36409;52.168;20.878;2023-04-30T09:06:53;100718.39;;;15.73;48.49
50484;BME280;36409;52.168;20.878;2023-04-30T09:09:35;100725.36;;;16.04;48.65
50484;BME280;36409;52.168;20.878;2023-04-30T09:12:16;100727.64;;;16.43;47.95
50484;BME280;36409;52.168;20.878;2023-04-30T09:15:00;100731.06;;;16.72;47.13
50484;BME280;36409;52.168;20.878;2023-04-30T09:17:34;100736.01;;;16.81;46.46
50484;BME280;36409;52.168;20.878;2023-04-30T09:20:13;100725.95;;;16.93;46.65
50484;BME280;36409;52.168;20.878;2023-04-30T09:22:47;100729.65;;;17.14;46.03
50484;BME280;36409;52.168;20.878;2023-04-30T09:25:42;100735.80;;;17.38;45.88
50484;BME280;36409;52.168;20.878;2023-04-30T09:28:15;100741.64;;;17.47;45.47
50484;BME280;36409;52.168;20.878;2023-04-30T09:30:48;100733.05;;;17.41;44.35
50484;BME280;36409;52.168;20.878;2023-04-30T09:33:22;100737.42;;;17.66;45.14
50484;BME280;36409;52.168;20.878;2023-04-30T09:35:55;100738.61;;;17.81;43.60
50484;BME280;36409;52.168;20.878;2023-04-30T09:38:30;100743.72;;;17.62;43.05
50484;BME280;36409;52.168;20.878;2023-04-30T09:41:02;100741.78;;;17.43;42.80
50484;BME280;36409;52.168;20.878;2023-04-30T09:43:45;100734.36;;;17.53;42.89
50484;BME280;36409;52.168;20.878;2023-04-30T09:46:19;100732.81;;;17.71;42.83
50484;BME280;36409;52.168;20.878;2023-04-30T09:48:58;100741.58;;;17.96;43.00
50484;BME280;36409;52.168;20.878;2023-04-30T09:51:31;100740.88;;;17.90;42.28
50484;BME280;36409;52.168;20.878;2023-04-30T09:54:08;100738.02;;;17.97;41.96
50484;BME280;36409;52.168;20.878;2023-04-30T09:56:41;100739.50;;;18.26;42.04
50484;BME280;36409;52.168;20.878;2023-04-30T09:59:14;100741.61;;;18.40;42.22
50484;BME280;36409;52.168;20.878;2023-04-30T10:01:48;100734.31;;;18.67;42.70
50484;BME280;36409;52.168;20.878;2023-04-30T10:04:22;100734.11;;;18.72;42.13
50484;BME280;36409;52.168;20.878;2023-04-30T10:06:57;100734.31;;;18.88;42.24
50484;BME280;36409;52.168;20.878;2023-04-30T10:09:40;100733.86;;;18.99;41.66
50484;BME280;36409;52.168;20.878;2023-04-30T10:12:21;100737.63;;;18.93;41.18
50484;BME280;36409;52.168;20.878;2023-04-30T10:15:01;100732.79;;;18.82;41.02
50484;BME280;36409;52.168;20.878;2023-04-30T10:17:39;100734.91;;;18.74;40.87
50484;BME280;36409;52.168;20.878;2023-04-30T10:20:14;100721.01;;;18.90;41.04
50484;BME280;36409;52.168;20.878;2023-04-30T10:22:49;100731.91;;;18.82;40.25
50484;BME280;36409;52.168;20.878;2023-04-30T10:25:22;100735.27;;;18.65;39.44
50484;BME280;36409;52.168;20.878;2023-04-30T10:27:58;100736.90;;;18.47;39.65
50484;BME280;36409;52.168;20.878;2023-04-30T10:30:35;100730.66;;;18.49;39.48
50484;BME280;36409;52.168;20.878;2023-04-30T10:33:28;100740.64;;;18.63;39.74
50484;BME280;36409;52.168;20.878;2023-04-30T10:36:05;100742.75;;;18.55;38.63
50484;BME280;36409;52.168;20.878;2023-04-30T10:38:39;100740.31;;;18.28;37.91
50484;BME280;36409;52.168;20.878;2023-04-30T10:41:12;100731.41;;;18.09;37.66
50484;BME280;36409;52.168;20.878;2023-04-30T10:43:47;100731.30;;;18.12;37.70
50484;BME280;36409;52.168;20.878;2023-04-30T10:46:26;100731.16;;;18.15;37.47
50484;BME280;36409;52.168;20.878;2023-04-30T10:48:59;100724.91;;;18.17;37.67
50484;BME280;36409;52.168;20.878;2023-04-30T10:51:48;100732.69;;;18.20;37.29
50484;BME280;36409;52.168;20.878;2023-04-30T10:54:26;100741.36;;;18.02;37.24
50484;BME280;36409;52.168;20.878;2023-04-30T10:57:11;100745.65;;;18.04;37.06
50484;BME280;36409;52.168;20.878;2023-04-30T10:59:50;100738.98;;;17.94;37.15
50484;BME280;36409;52.168;20.878;2023-04-30T11:02:24;100746.52;;;18.27;37.93
50484;BME280;36409;52.168;20.878;2023-04-30T11:05:14;100738.59;;;18.27;36.85
50484;BME280;36409;52.168;20.878;2023-04-30T11:07:49;100738.16;;;18.16;37.03
50484;BME280;36409;52.168;20.878;2023-04-30T11:10:23;100737.50;;;18.11;37.03
50484;BME280;36409;52.168;20.878;2023-04-30T11:12:56;100745.23;;;18.15;37.50
50484;BME280;36409;52.168;20.878;2023-04-30T11:15:38;100742.06;;;18.50;38.16
50484;BME280;36409;52.168;20.878;2023-04-30T11:18:13;100737.59;;;18.73;37.60
50484;BME280;36409;52.168;20.878;2023-04-30T11:20:54;100739.13;;;18.78;37.63
50484;BME280;36409;52.168;20.878;2023-04-30T11:23:28;100742.16;;;18.69;37.17
50484;BME280;36409;52.168;20.878;2023-04-30T11:26:11;100752.64;;;18.50;37.06
50484;BME280;36409;52.168;20.878;2023-04-30T11:28:51;100753.70;;;18.46;36.93
50484;BME280;36409;52.168;20.878;2023-04-30T11:31:34;100748.91;;;18.11;36.66
50484;BME280;36409;52.168;20.878;2023-04-30T11:34:07;100751.55;;;17.87;36.64
50484;BME280;36409;52.168;20.878;2023-04-30T11:36:42;100748.91;;;17.87;36.95
50484;BME280;36409;52.168;20.878;2023-04-30T11:39:16;100746.23;;;17.89;37.30
50484;BME280;36409;52.168;20.878;2023-04-30T11:41:49;100748.80;;;17.90;37.25
50484;BME280;36409;52.168;20.878;2023-04-30T11:44:26;100754.56;;;18.02;37.30
50484;BME280;36409;52.168;20.878;2023-04-30T11:47:00;100752.52;;;18.31;37.62
50484;BME280;36409;52.168;20.878;2023-04-30T11:49:33;100755.16;;;18.53;37.51
50484;BME280;36409;52.168;20.878;2023-04-30T11:52:05;100757.58;;;18.37;36.94
50484;BME280;36409;52.168;20.878;2023-04-30T11:54:39;100762.06;;;18.35;37.37
50484;BME280;36409;52.168;20.878;2023-04-30T11:57:15;100770.77;;;18.15;36.65
50484;BME280;36409;52.168;20.878;2023-04-30T11:59:48;100759.55;;;17.86;36.61
50484;BME280;36409;52.168;20.878;2023-04-30T12:02:20;100767.02;;;17.74;36.63
50484;BME280;36409;52.168;20.878;2023-04-30T12:04:55;100762.02;;;17.67;37.05
50484;BME280;36409;52.168;20.878;2023-04-30T12:07:29;100767.86;;;17.75;36.69
50484;BME280;36409;52.168;20.878;2023-04-30T12:10:01;100774.58;;;17.60;36.04
50484;BME280;36409;52.168;20.878;2023-04-30T12:12:37;100774.12;;;17.49;36.04
50484;BME280;36409;52.168;20.878;2023-04-30T12:15:14;100776.72;;;17.50;36.50
50484;BME280;36409;52.168;20.878;2023-04-30T12:17:47;100767.86;;;17.75;36.83
50484;BME280;36409;52.168;20.878;2023-04-30T12:20:21;100762.70;;;17.96;36.92
50484;BME280;36409;52.168;20.878;2023-04-30T12:22:55;100755.61;;;18.20;37.63
50484;BME280;36409;52.168;20.878;2023-04-30T12:25:29;100762.48;;;18.24;36.72
50484;BME280;36409;52.168;20.878;2023-04-30T12:28:01;100764.69;;;18.13;36.63
50484;BME280;36409;52.168;20.878;2023-04-30T12:30:34;100768.42;;;18.07;36.07
50484;BME280;36409;52.168;20.878;2023-04-30T12:33:10;100759.09;;;17.74;35.99
50484;BME280;36409;52.168;20.878;2023-04-30T12:35:43;100762.94;;;17.66;36.36
50484;BME280;36409;52.168;20.878;2023-04-30T12:38:16;100764.75;;;17.40;35.38
50484;BME280;36409;52.168;20.878;2023-04-30T12:40:50;100761.77;;;17.25;35.84
50484;BME280;36409;52.168;20.878;2023-04-30T12:43:23;100768.61;;;17.31;36.26
50484;BME280;36409;52.168;20.878;2023-04-30T12:45:56;100771.75;;;17.41;35.92
50484;BME280;36409;52.168;20.878;2023-04-30T12:48:28;100764.67;;;17.18;35.79
50484;BME280;36409;52.168;20.878;2023-04-30T12:51:02;100766.19;;;17.00;35.75
50484;BME280;36409;52.168;20.878;2023-04-30T12:53:45;100757.27;;;17.04;35.84
50484;BME280;36409;52.168;20.878;2023-04-30T12:56:17;100762.47;;;17.05;35.64
50484;BME280;36409;52.168;20.878;2023-04-30T12:58:50;100759.84;;;17.05;35.92
50484;BME280;36409;52.168;20.878;2023-04-30T13:01:22;100756.35;;;17.05;35.65
50484;BME280;36409;52.168;20.878;2023-04-30T13:03:57;100756.45;;;17.02;35.71
50484;BME280;36409;52.168;20.878;2023-04-30T13:06:31;100756.38;;;17.03;36.51
50484;BME280;36409;52.168;20.878;2023-04-30T13:09:04;100749.68;;;16.93;35.44
50484;BME280;36409;52.168;20.878;2023-04-30T13:11:36;100760.48;;;16.85;35.40
50484;BME280;36409;52.168;20.878;2023-04-30T13:14:08;100761.36;;;16.86;36.15
50484;BME280;36409;52.168;20.878;2023-04-30T13:16:42;100754.30;;;16.86;36.12